Weather at Dhekelia Station Helipad

Public forecast

Using degrees Celsius for public forecast. Weather courtesy of forecast.io.

Closest aviation weather report (METAR) to Dhekelia Station Helipad

Closest report is Larnaca International Airport, 9.0 nm (16.8 km) SW.

2024/07/19 08:30 (retrieved 32 minutes ago)

LCLK 190830Z 17009KT 140V200 9999 FEW030 34/24 Q1002 NOSIG

Closest aviation forecast (TAF) to Dhekelia Station Helipad

Closest forecast is Larnaca International Airport, 9.0 nm (16.8 km) SW.

2024/07/19 06:27 (retrieved 3 hours ago)

TAF TAF LCLK 190530Z 1906/2006 08006KT 9999 FEW020 BECMG 1908/1912 21017KT BECMG 1916/1919 24007KT